sensor_id;sensor_type;location;lat;lon;timestamp;P1;durP1;ratioP1;P2;durP2;ratioP2
78072;SDS011;67281;48.770;11.440;2023-05-29T00:02:55;6.23;;;3.27;;
78072;SDS011;67281;48.770;11.440;2023-05-29T00:05:34;5.97;;;3.70;;
78072;SDS011;67281;48.770;11.440;2023-05-29T00:08:02;4.50;;;3.03;;
78072;SDS011;67281;48.770;11.440;2023-05-29T00:10:30;4.63;;;3.50;;
78072;SDS011;67281;48.770;11.440;2023-05-29T00:12:57;7.13;;;3.33;;
78072;SDS011;67281;48.770;11.440;2023-05-29T00:15:48;5.00;;;3.60;;
78072;SDS011;67281;48.770;11.440;2023-05-29T00:18:18;6.73;;;3.87;;
78072;SDS011;67281;48.770;11.440;2023-05-29T00:23:57;7.37;;;3.80;;
78072;SDS011;67281;48.770;11.440;2023-05-29T00:26:39;3.93;;;3.03;;
78072;SDS011;67281;48.770;11.440;2023-05-29T00:29:12;5.50;;;3.77;;
78072;SDS011;67281;48.770;11.440;2023-05-29T00:32:27;6.70;;;3.50;;
78072;SDS011;67281;48.770;11.440;2023-05-29T00:34:54;7.40;;;3.83;;
78072;SDS011;67281;48.770;11.440;2023-05-29T00:37:22;8.33;;;3.87;;
78072;SDS011;67281;48.770;11.440;2023-05-29T00:39:58;5.57;;;3.57;;
78072;SDS011;67281;48.770;11.440;2023-05-29T00:42:43;4.43;;;3.17;;
78072;SDS011;67281;48.770;11.440;2023-05-29T00:45:35;6.90;;;3.53;;
78072;SDS011;67281;48.770;11.440;2023-05-29T00:48:08;8.30;;;3.70;;
78072;SDS011;67281;48.770;11.440;2023-05-29T00:50:36;7.43;;;3.67;;
78072;SDS011;67281;48.770;11.440;2023-05-29T00:53:03;4.87;;;3.50;;
78072;SDS011;67281;48.770;11.440;2023-05-29T00:55:35;5.67;;;3.70;;
78072;SDS011;67281;48.770;11.440;2023-05-29T01:01:10;6.40;;;3.50;;
78072;SDS011;67281;48.770;11.440;2023-05-29T01:04:25;4.87;;;3.47;;
78072;SDS011;67281;48.770;11.440;2023-05-29T01:06:53;7.27;;;3.53;;
78072;SDS011;67281;48.770;11.440;2023-05-29T01:15:50;5.53;;;4.00;;
78072;SDS011;67281;48.770;11.440;2023-05-29T01:18:50;5.90;;;3.80;;
78072;SDS011;67281;48.770;11.440;2023-05-29T01:27:46;5.93;;;3.53;;
78072;SDS011;67281;48.770;11.440;2023-05-29T01:30:14;6.23;;;3.40;;
78072;SDS011;67281;48.770;11.440;2023-05-29T01:32:42;6.73;;;3.83;;
78072;SDS011;67281;48.770;11.440;2023-05-29T01:35:29;4.93;;;3.60;;
78072;SDS011;67281;48.770;11.440;2023-05-29T01:37:56;5.07;;;3.43;;
78072;SDS011;67281;48.770;11.440;2023-05-29T01:40:24;4.97;;;3.27;;
78072;SDS011;67281;48.770;11.440;2023-05-29T01:42:54;6.03;;;3.90;;
78072;SDS011;67281;48.770;11.440;2023-05-29T01:45:29;4.90;;;3.90;;
78072;SDS011;67281;48.770;11.440;2023-05-29T01:48:03;4.77;;;3.40;;
78072;SDS011;67281;48.770;11.440;2023-05-29T01:50:31;5.33;;;3.60;;
78072;SDS011;67281;48.770;11.440;2023-05-29T01:53:17;4.57;;;3.47;;
78072;SDS011;67281;48.770;11.440;2023-05-29T01:55:49;5.80;;;3.93;;
78072;SDS011;67281;48.770;11.440;2023-05-29T01:58:25;5.57;;;3.63;;
78072;SDS011;67281;48.770;11.440;2023-05-29T02:00:54;4.40;;;3.33;;
78072;SDS011;67281;48.770;11.440;2023-05-29T02:03:23;8.30;;;4.10;;
78072;SDS011;67281;48.770;11.440;2023-05-29T02:05:50;6.20;;;4.17;;
78072;SDS011;67281;48.770;11.440;2023-05-29T02:08:31;6.50;;;3.77;;
78072;SDS011;67281;48.770;11.440;2023-05-29T02:11:07;4.83;;;3.60;;
78072;SDS011;67281;48.770;11.440;2023-05-29T02:13:48;5.00;;;3.40;;
78072;SDS011;67281;48.770;11.440;2023-05-29T02:16:53;6.57;;;3.60;;
78072;SDS011;67281;48.770;11.440;2023-05-29T02:19:20;9.03;;;4.50;;
78072;SDS011;67281;48.770;11.440;2023-05-29T02:21:47;5.53;;;3.50;;
78072;SDS011;67281;48.770;11.440;2023-05-29T02:34:26;6.03;;;3.63;;
78072;SDS011;67281;48.770;11.440;2023-05-29T02:36:57;4.97;;;4.10;;
78072;SDS011;67281;48.770;11.440;2023-05-29T02:39:24;4.47;;;3.47;;
78072;SDS011;67281;48.770;11.440;2023-05-29T02:42:12;5.73;;;3.60;;
78072;SDS011;67281;48.770;11.440;2023-05-29T02:44:51;6.13;;;4.00;;
78072;SDS011;67281;48.770;11.440;2023-05-29T02:47:53;6.03;;;3.40;;
78072;SDS011;67281;48.770;11.440;2023-05-29T02:50:20;7.50;;;4.60;;
78072;SDS011;67281;48.770;11.440;2023-05-29T02:52:47;5.17;;;4.03;;
78072;SDS011;67281;48.770;11.440;2023-05-29T02:55:20;5.93;;;3.80;;
78072;SDS011;67281;48.770;11.440;2023-05-29T02:57:47;5.97;;;4.67;;
78072;SDS011;67281;48.770;11.440;2023-05-29T03:00:18;5.70;;;4.13;;
78072;SDS011;67281;48.770;11.440;2023-05-29T03:03:23;6.80;;;4.70;;
78072;SDS011;67281;48.770;11.440;2023-05-29T03:05:50;7.23;;;4.43;;
78072;SDS011;67281;48.770;11.440;2023-05-29T03:08:17;6.07;;;4.27;;
78072;SDS011;67281;48.770;11.440;2023-05-29T03:10:45;7.43;;;4.60;;
78072;SDS011;67281;48.770;11.440;2023-05-29T03:13:13;4.87;;;3.93;;
78072;SDS011;67281;48.770;11.440;2023-05-29T03:15:42;6.07;;;4.00;;
78072;SDS011;67281;48.770;11.440;2023-05-29T03:18:09;5.47;;;3.90;;
78072;SDS011;67281;48.770;11.440;2023-05-29T03:20:50;4.93;;;3.40;;
78072;SDS011;67281;48.770;11.440;2023-05-29T03:23:35;7.50;;;3.77;;
78072;SDS011;67281;48.770;11.440;2023-05-29T03:26:02;7.97;;;3.97;;
78072;SDS011;67281;48.770;11.440;2023-05-29T03:28:33;6.47;;;4.07;;
78072;SDS011;67281;48.770;11.440;2023-05-29T03:31:04;6.10;;;3.70;;
78072;SDS011;67281;48.770;11.440;2023-05-29T03:33:35;6.57;;;4.00;;
78072;SDS011;67281;48.770;11.440;2023-05-29T03:36:02;6.53;;;3.77;;
78072;SDS011;67281;48.770;11.440;2023-05-29T03:38:30;7.77;;;4.10;;
78072;SDS011;67281;48.770;11.440;2023-05-29T03:40:57;6.50;;;3.77;;
78072;SDS011;67281;48.770;11.440;2023-05-29T03:43:24;6.90;;;3.60;;
78072;SDS011;67281;48.770;11.440;2023-05-29T03:45:51;4.73;;;3.80;;
78072;SDS011;67281;48.770;11.440;2023-05-29T03:48:29;9.53;;;4.20;;
78072;SDS011;67281;48.770;11.440;2023-05-29T03:50:56;5.60;;;4.00;;
78072;SDS011;67281;48.770;11.440;2023-05-29T03:53:23;5.80;;;3.50;;
78072;SDS011;67281;48.770;11.440;2023-05-29T03:55:50;7.33;;;3.90;;
78072;SDS011;67281;48.770;11.440;2023-05-29T03:58:32;6.93;;;3.60;;
78072;SDS011;67281;48.770;11.440;2023-05-29T04:01:02;5.90;;;3.53;;
78072;SDS011;67281;48.770;11.440;2023-05-29T04:03:30;7.60;;;3.43;;
78072;SDS011;67281;48.770;11.440;2023-05-29T04:06:30;7.47;;;3.80;;
78072;SDS011;67281;48.770;11.440;2023-05-29T04:09:11;6.47;;;4.10;;
78072;SDS011;67281;48.770;11.440;2023-05-29T04:11:38;4.83;;;3.43;;
78072;SDS011;67281;48.770;11.440;2023-05-29T04:14:06;6.33;;;3.63;;
78072;SDS011;67281;48.770;11.440;2023-05-29T04:19:33;4.73;;;3.80;;
78072;SDS011;67281;48.770;11.440;2023-05-29T04:29:54;4.67;;;3.40;;
78072;SDS011;67281;48.770;11.440;2023-05-29T04:32:25;4.80;;;3.70;;
78072;SDS011;67281;48.770;11.440;2023-05-29T04:35:08;7.17;;;3.50;;
78072;SDS011;67281;48.770;11.440;2023-05-29T04:38:38;5.60;;;3.87;;
78072;SDS011;67281;48.770;11.440;2023-05-29T04:53:23;5.43;;;3.23;;
78072;SDS011;67281;48.770;11.440;2023-05-29T04:55:51;7.53;;;3.60;;
78072;SDS011;67281;48.770;11.440;2023-05-29T04:58:21;6.27;;;3.57;;
78072;SDS011;67281;48.770;11.440;2023-05-29T05:01:00;5.63;;;3.70;;
78072;SDS011;67281;48.770;11.440;2023-05-29T05:16:53;5.13;;;3.77;;
78072;SDS011;67281;48.770;11.440;2023-05-29T05:22:46;4.90;;;3.20;;
78072;SDS011;67281;48.770;11.440;2023-05-29T05:25:34;4.80;;;3.53;;
78072;SDS011;67281;48.770;11.440;2023-05-29T05:28:02;4.63;;;3.37;;
78072;SDS011;67281;48.770;11.440;2023-05-29T05:36:20;5.87;;;3.30;;
78072;SDS011;67281;48.770;11.440;2023-05-29T05:38:53;10.03;;;3.23;;
78072;SDS011;67281;48.770;11.440;2023-05-29T05:41:30;6.43;;;3.33;;
78072;SDS011;67281;48.770;11.440;2023-05-29T05:44:06;4.40;;;3.10;;
78072;SDS011;67281;48.770;11.440;2023-05-29T05:46:33;5.43;;;3.57;;
78072;SDS011;67281;48.770;11.440;2023-05-29T05:49:07;4.57;;;2.80;;
78072;SDS011;67281;48.770;11.440;2023-05-29T05:51:34;6.87;;;3.83;;
78072;SDS011;67281;48.770;11.440;2023-05-29T05:54:04;5.87;;;3.27;;
78072;SDS011;67281;48.770;11.440;2023-05-29T05:56:34;5.10;;;2.87;;
78072;SDS011;67281;48.770;11.440;2023-05-29T05:59:03;4.80;;;3.00;;
78072;SDS011;67281;48.770;11.440;2023-05-29T06:01:33;6.33;;;3.43;;
78072;SDS011;67281;48.770;11.440;2023-05-29T06:04:01;4.00;;;3.37;;
78072;SDS011;67281;48.770;11.440;2023-05-29T06:06:34;4.60;;;2.90;;
78072;SDS011;67281;48.770;11.440;2023-05-29T06:09:05;6.90;;;3.10;;
78072;SDS011;67281;48.770;11.440;2023-05-29T06:12:04;5.40;;;3.17;;
78072;SDS011;67281;48.770;11.440;2023-05-29T06:14:34;4.10;;;3.40;;
78072;SDS011;67281;48.770;11.440;2023-05-29T06:17:04;5.63;;;3.77;;
78072;SDS011;67281;48.770;11.440;2023-05-29T06:19:31;5.60;;;3.43;;
78072;SDS011;67281;48.770;11.440;2023-05-29T06:22:14;5.13;;;3.30;;
78072;SDS011;67281;48.770;11.440;2023-05-29T06:24:45;4.27;;;3.13;;
78072;SDS011;67281;48.770;11.440;2023-05-29T06:33:44;5.17;;;2.80;;
78072;SDS011;67281;48.770;11.440;2023-05-29T06:39:24;6.50;;;3.17;;
78072;SDS011;67281;48.770;11.440;2023-05-29T06:42:12;7.37;;;3.23;;
78072;SDS011;67281;48.770;11.440;2023-05-29T06:44:42;8.40;;;3.20;;
78072;SDS011;67281;48.770;11.440;2023-05-29T06:47:09;7.57;;;2.80;;
78072;SDS011;67281;48.770;11.440;2023-05-29T06:50:07;5.40;;;3.13;;
78072;SDS011;67281;48.770;11.440;2023-05-29T06:52:46;5.33;;;3.13;;
78072;SDS011;67281;48.770;11.440;2023-05-29T06:55:54;6.70;;;2.93;;
78072;SDS011;67281;48.770;11.440;2023-05-29T06:59:14;4.43;;;2.70;;
78072;SDS011;67281;48.770;11.440;2023-05-29T07:01:44;4.13;;;3.13;;
78072;SDS011;67281;48.770;11.440;2023-05-29T07:04:11;4.50;;;3.00;;
78072;SDS011;67281;48.770;11.440;2023-05-29T07:06:48;6.50;;;2.90;;
78072;SDS011;67281;48.770;11.440;2023-05-29T07:09:16;3.60;;;2.63;;
78072;SDS011;67281;48.770;11.440;2023-05-29T07:11:57;7.57;;;3.40;;
78072;SDS011;67281;48.770;11.440;2023-05-29T07:14:27;4.03;;;2.77;;
78072;SDS011;67281;48.770;11.440;2023-05-29T07:16:54;4.43;;;3.00;;
78072;SDS011;67281;48.770;11.440;2023-05-29T07:19:37;4.23;;;3.00;;
78072;SDS011;67281;48.770;11.440;2023-05-29T07:22:04;6.03;;;2.90;;
78072;SDS011;67281;48.770;11.440;2023-05-29T07:24:31;5.03;;;3.13;;
78072;SDS011;67281;48.770;11.440;2023-05-29T07:26:59;4.57;;;3.03;;
78072;SDS011;67281;48.770;11.440;2023-05-29T07:29:26;4.90;;;3.17;;
78072;SDS011;67281;48.770;11.440;2023-05-29T07:32:03;7.17;;;3.20;;
78072;SDS011;67281;48.770;11.440;2023-05-29T07:35:00;3.97;;;2.53;;
78072;SDS011;67281;48.770;11.440;2023-05-29T07:40:44;6.13;;;3.00;;
78072;SDS011;67281;48.770;11.440;2023-05-29T07:50:16;4.90;;;3.00;;
78072;SDS011;67281;48.770;11.440;2023-05-29T07:53:33;4.20;;;2.90;;
78072;SDS011;67281;48.770;11.440;2023-05-29T07:56:33;5.53;;;3.00;;
78072;SDS011;67281;48.770;11.440;2023-05-29T08:02:54;4.27;;;3.10;;
78072;SDS011;67281;48.770;11.440;2023-05-29T08:08:38;4.93;;;3.20;;
78072;SDS011;67281;48.770;11.440;2023-05-29T08:11:08;4.13;;;2.67;;
78072;SDS011;67281;48.770;11.440;2023-05-29T08:14:31;4.83;;;2.73;;
78072;SDS011;67281;48.770;11.440;2023-05-29T08:17:02;4.10;;;2.47;;
78072;SDS011;67281;48.770;11.440;2023-05-29T08:19:29;4.87;;;2.80;;
78072;SDS011;67281;48.770;11.440;2023-05-29T08:21:58;4.83;;;2.83;;
78072;SDS011;67281;48.770;11.440;2023-05-29T08:24:40;3.80;;;2.80;;
78072;SDS011;67281;48.770;11.440;2023-05-29T08:27:30;3.17;;;2.70;;
78072;SDS011;67281;48.770;11.440;2023-05-29T08:30:12;5.43;;;2.73;;
78072;SDS011;67281;48.770;11.440;2023-05-29T08:32:42;6.90;;;3.30;;
78072;SDS011;67281;48.770;11.440;2023-05-29T08:35:12;5.27;;;3.03;;
78072;SDS011;67281;48.770;11.440;2023-05-29T08:44:40;3.97;;;2.73;;
78072;SDS011;67281;48.770;11.440;2023-05-29T08:47:40;4.77;;;3.00;;
78072;SDS011;67281;48.770;11.440;2023-05-29T08:50:50;5.83;;;2.73;;
78072;SDS011;67281;48.770;11.440;2023-05-29T08:56:10;5.43;;;3.23;;
78072;SDS011;67281;48.770;11.440;2023-05-29T08:59:15;5.77;;;3.07;;
78072;SDS011;67281;48.770;11.440;2023-05-29T09:01:47;6.47;;;2.73;;
78072;SDS011;67281;48.770;11.440;2023-05-29T09:04:23;4.60;;;3.20;;
78072;SDS011;67281;48.770;11.440;2023-05-29T09:06:51;4.40;;;2.83;;
78072;SDS011;67281;48.770;11.440;2023-05-29T09:09:35;4.47;;;2.97;;
78072;SDS011;67281;48.770;11.440;2023-05-29T09:12:04;4.23;;;2.90;;
78072;SDS011;67281;48.770;11.440;2023-05-29T09:23:33;6.23;;;3.10;;
78072;SDS011;67281;48.770;11.440;2023-05-29T09:26:13;6.23;;;3.23;;
78072;SDS011;67281;48.770;11.440;2023-05-29T09:29:36;7.23;;;3.23;;
78072;SDS011;67281;48.770;11.440;2023-05-29T09:32:15;4.33;;;2.67;;
78072;SDS011;67281;48.770;11.440;2023-05-29T09:34:43;7.77;;;2.93;;
78072;SDS011;67281;48.770;11.440;2023-05-29T09:37:13;5.40;;;2.90;;
78072;SDS011;67281;48.770;11.440;2023-05-29T09:39:47;6.17;;;3.53;;
78072;SDS011;67281;48.770;11.440;2023-05-29T09:42:15;6.00;;;2.67;;
78072;SDS011;67281;48.770;11.440;2023-05-29T09:44:45;7.03;;;3.57;;
78072;SDS011;67281;48.770;11.440;2023-05-29T09:47:49;4.30;;;2.97;;
78072;SDS011;67281;48.770;11.440;2023-05-29T09:50:25;3.27;;;2.57;;
78072;SDS011;67281;48.770;11.440;2023-05-29T09:53:32;4.70;;;2.77;;
78072;SDS011;67281;48.770;11.440;2023-05-29T09:56:36;4.30;;;2.70;;
78072;SDS011;67281;48.770;11.440;2023-05-29T10:02:59;5.47;;;2.97;;
78072;SDS011;67281;48.770;11.440;2023-05-29T10:05:33;5.43;;;2.60;;
78072;SDS011;67281;48.770;11.440;2023-05-29T10:08:38;4.70;;;2.97;;
78072;SDS011;67281;48.770;11.440;2023-05-29T10:11:14;2.73;;;2.50;;
78072;SDS011;67281;48.770;11.440;2023-05-29T10:13:56;5.23;;;2.43;;
78072;SDS011;67281;48.770;11.440;2023-05-29T10:16:38;3.00;;;2.43;;
78072;SDS011;67281;48.770;11.440;2023-05-29T10:19:13;4.07;;;2.43;;
78072;SDS011;67281;48.770;11.440;2023-05-29T10:21:46;4.57;;;2.30;;
78072;SDS011;67281;48.770;11.440;2023-05-29T10:24:24;3.93;;;2.60;;
78072;SDS011;67281;48.770;11.440;2023-05-29T10:29:44;4.70;;;2.97;;
78072;SDS011;67281;48.770;11.440;2023-05-29T10:32:29;5.43;;;2.80;;
78072;SDS011;67281;48.770;11.440;2023-05-29T10:38:44;4.70;;;2.93;;
78072;SDS011;67281;48.770;11.440;2023-05-29T10:41:31;5.47;;;2.90;;
78072;SDS011;67281;48.770;11.440;2023-05-29T10:44:01;3.70;;;2.73;;
78072;SDS011;67281;48.770;11.440;2023-05-29T10:47:08;5.27;;;2.70;;
78072;SDS011;67281;48.770;11.440;2023-05-29T10:53:02;3.47;;;3.00;;
78072;SDS011;67281;48.770;11.440;2023-05-29T10:55:58;4.13;;;3.17;;
78072;SDS011;67281;48.770;11.440;2023-05-29T10:58:32;4.23;;;2.80;;
78072;SDS011;67281;48.770;11.440;2023-05-29T11:01:20;6.33;;;3.30;;
78072;SDS011;67281;48.770;11.440;2023-05-29T11:06:55;6.37;;;3.10;;
78072;SDS011;67281;48.770;11.440;2023-05-29T11:09:53;4.73;;;3.10;;
78072;SDS011;67281;48.770;11.440;2023-05-29T11:12:55;4.97;;;2.60;;
78072;SDS011;67281;48.770;11.440;2023-05-29T11:15:23;6.20;;;2.93;;
78072;SDS011;67281;48.770;11.440;2023-05-29T11:18:06;3.97;;;2.77;;
78072;SDS011;67281;48.770;11.440;2023-05-29T11:20:43;5.43;;;3.30;;
78072;SDS011;67281;48.770;11.440;2023-05-29T11:23:19;6.37;;;2.87;;
78072;SDS011;67281;48.770;11.440;2023-05-29T11:25:49;4.90;;;2.53;;
78072;SDS011;67281;48.770;11.440;2023-05-29T11:38:56;3.27;;;2.53;;
78072;SDS011;67281;48.770;11.440;2023-05-29T11:44:45;4.83;;;2.63;;
78072;SDS011;67281;48.770;11.440;2023-05-29T11:47:59;3.63;;;2.37;;
78072;SDS011;67281;48.770;11.440;2023-05-29T11:53:50;3.57;;;2.70;;
78072;SDS011;67281;48.770;11.440;2023-05-29T11:56:47;4.13;;;2.87;;
78072;SDS011;67281;48.770;11.440;2023-05-29T12:00:04;5.87;;;3.10;;
78072;SDS011;67281;48.770;11.440;2023-05-29T12:02:25;11.20;;;3.10;;
78072;SDS011;67281;48.770;11.440;2023-05-29T12:05:03;4.77;;;2.20;;
78072;SDS011;67281;48.770;11.440;2023-05-29T12:07:36;10.20;;;2.73;;
78072;SDS011;67281;48.770;11.440;2023-05-29T12:10:25;4.18;;;2.63;;
78072;SDS011;67281;48.770;11.440;2023-05-29T12:13:39;4.37;;;2.63;;
78072;SDS011;67281;48.770;11.440;2023-05-29T12:16:09;3.28;;;2.25;;
78072;SDS011;67281;48.770;11.440;2023-05-29T12:18:36;4.83;;;2.57;;
78072;SDS011;67281;48.770;11.440;2023-05-29T12:21:05;3.58;;;2.63;;
78072;SDS011;67281;48.770;11.440;2023-05-29T12:27:43;2.90;;;2.53;;
78072;SDS011;67281;48.770;11.440;2023-05-29T12:32:59;3.40;;;2.65;;
78072;SDS011;67281;48.770;11.440;2023-05-29T12:36:05;4.40;;;2.80;;
78072;SDS011;67281;48.770;11.440;2023-05-29T12:38:41;3.73;;;2.33;;
78072;SDS011;67281;48.770;11.440;2023-05-29T12:48:00;3.58;;;2.53;;
78072;SDS011;67281;48.770;11.440;2023-05-29T12:50:30;5.63;;;2.53;;
78072;SDS011;67281;48.770;11.440;2023-05-29T12:53:05;3.40;;;2.67;;
78072;SDS011;67281;48.770;11.440;2023-05-29T12:55:37;4.30;;;2.65;;
78072;SDS011;67281;48.770;11.440;2023-05-29T12:58:07;7.18;;;2.55;;
78072;SDS011;67281;48.770;11.440;2023-05-29T13:00:41;4.15;;;2.40;;
78072;SDS011;67281;48.770;11.440;2023-05-29T13:07:09;2.90;;;2.20;;
78072;SDS011;67281;48.770;11.440;2023-05-29T13:09:40;5.13;;;2.25;;
78072;SDS011;67281;48.770;11.440;2023-05-29T13:12:58;4.22;;;2.80;;
78072;SDS011;67281;48.770;11.440;2023-05-29T13:15:45;4.25;;;2.75;;
78072;SDS011;67281;48.770;11.440;2023-05-29T13:18:52;3.35;;;2.60;;
78072;SDS011;67281;48.770;11.440;2023-05-29T13:21:19;5.63;;;2.17;;
78072;SDS011;67281;48.770;11.440;2023-05-29T13:23:46;3.13;;;2.50;;
78072;SDS011;67281;48.770;11.440;2023-05-29T13:26:30;4.45;;;2.60;;
78072;SDS011;67281;48.770;11.440;2023-05-29T13:29:06;4.45;;;2.50;;
78072;SDS011;67281;48.770;11.440;2023-05-29T13:32:00;4.05;;;2.40;;
78072;SDS011;67281;48.770;11.440;2023-05-29T13:34:59;3.53;;;2.03;;
78072;SDS011;67281;48.770;11.440;2023-05-29T13:37:29;4.43;;;2.35;;
78072;SDS011;67281;48.770;11.440;2023-05-29T13:39:59;4.77;;;2.47;;
78072;SDS011;67281;48.770;11.440;2023-05-29T13:42:26;5.35;;;1.90;;
78072;SDS011;67281;48.770;11.440;2023-05-29T13:44:56;2.78;;;2.10;;
78072;SDS011;67281;48.770;11.440;2023-05-29T13:47:39;4.57;;;2.83;;
78072;SDS011;67281;48.770;11.440;2023-05-29T13:50:07;2.58;;;2.13;;
78072;SDS011;67281;48.770;11.440;2023-05-29T13:52:54;5.05;;;2.40;;
78072;SDS011;67281;48.770;11.440;2023-05-29T13:55:47;3.17;;;2.75;;
78072;SDS011;67281;48.770;11.440;2023-05-29T13:58:17;3.35;;;2.50;;
78072;SDS011;67281;48.770;11.440;2023-05-29T14:01:02;3.72;;;2.47;;
78072;SDS011;67281;48.770;11.440;2023-05-29T14:03:32;4.25;;;2.40;;
78072;SDS011;67281;48.770;11.440;2023-05-29T14:06:11;3.75;;;2.20;;
78072;SDS011;67281;48.770;11.440;2023-05-29T14:09:19;3.15;;;2.33;;
78072;SDS011;67281;48.770;11.440;2023-05-29T14:12:21;3.97;;;2.30;;
78072;SDS011;67281;48.770;11.440;2023-05-29T14:15:20;2.42;;;2.00;;
78072;SDS011;67281;48.770;11.440;2023-05-29T14:18:23;6.60;;;2.50;;
78072;SDS011;67281;48.770;11.440;2023-05-29T14:20:54;4.85;;;2.55;;
78072;SDS011;67281;48.770;11.440;2023-05-29T14:23:21;3.30;;;2.17;;
78072;SDS011;67281;48.770;11.440;2023-05-29T14:25:48;5.47;;;2.28;;
78072;SDS011;67281;48.770;11.440;2023-05-29T14:28:24;2.95;;;2.50;;
78072;SDS011;67281;48.770;11.440;2023-05-29T14:30:55;2.88;;;2.58;;
78072;SDS011;67281;48.770;11.440;2023-05-29T14:33:54;5.05;;;2.47;;
78072;SDS011;67281;48.770;11.440;2023-05-29T14:36:42;3.03;;;2.20;;
78072;SDS011;67281;48.770;11.440;2023-05-29T14:39:44;5.97;;;2.17;;
78072;SDS011;67281;48.770;11.440;2023-05-29T14:42:52;2.75;;;2.13;;
78072;SDS011;67281;48.770;11.440;2023-05-29T14:45:19;3.72;;;2.30;;
78072;SDS011;67281;48.770;11.440;2023-05-29T14:47:46;3.83;;;2.30;;
78072;SDS011;67281;48.770;11.440;2023-05-29T14:50:16;4.20;;;2.40;;
78072;SDS011;67281;48.770;11.440;2023-05-29T14:52:43;5.82;;;2.90;;
78072;SDS011;67281;48.770;11.440;2023-05-29T14:55:54;3.30;;;2.20;;
78072;SDS011;67281;48.770;11.440;2023-05-29T14:58:53;3.88;;;2.28;;
78072;SDS011;67281;48.770;11.440;2023-05-29T15:01:43;3.10;;;2.38;;
78072;SDS011;67281;48.770;11.440;2023-05-29T15:04:13;5.30;;;3.10;;
78072;SDS011;67281;48.770;11.440;2023-05-29T15:07:23;4.38;;;2.83;;
78072;SDS011;67281;48.770;11.440;2023-05-29T15:09:50;3.17;;;2.40;;
78072;SDS011;67281;48.770;11.440;2023-05-29T15:12:18;2.85;;;2.33;;
78072;SDS011;67281;48.770;11.440;2023-05-29T15:14:45;2.55;;;1.80;;
78072;SDS011;67281;48.770;11.440;2023-05-29T15:17:12;4.78;;;2.50;;
78072;SDS011;67281;48.770;11.440;2023-05-29T15:19:57;4.57;;;2.30;;
78072;SDS011;67281;48.770;11.440;2023-05-29T15:22:40;4.50;;;2.17;;
78072;SDS011;67281;48.770;11.440;2023-05-29T15:25:42;4.78;;;3.17;;
78072;SDS011;67281;48.770;11.440;2023-05-29T15:31:44;2.60;;;2.30;;
78072;SDS011;67281;48.770;11.440;2023-05-29T15:34:17;3.75;;;2.47;;
78072;SDS011;67281;48.770;11.440;2023-05-29T15:36:44;7.47;;;2.60;;
78072;SDS011;67281;48.770;11.440;2023-05-29T15:39:11;4.18;;;2.60;;
78072;SDS011;67281;48.770;11.440;2023-05-29T15:41:38;2.72;;;2.35;;
78072;SDS011;67281;48.770;11.440;2023-05-29T15:44:06;3.28;;;2.42;;
78072;SDS011;67281;48.770;11.440;2023-05-29T15:46:41;2.85;;;2.10;;
78072;SDS011;67281;48.770;11.440;2023-05-29T15:49:08;4.95;;;2.30;;
78072;SDS011;67281;48.770;11.440;2023-05-29T15:51:35;3.15;;;2.45;;
78072;SDS011;67281;48.770;11.440;2023-05-29T15:54:07;4.18;;;2.50;;
78072;SDS011;67281;48.770;11.440;2023-05-29T15:56:43;3.58;;;2.53;;
78072;SDS011;67281;48.770;11.440;2023-05-29T16:02:28;3.65;;;2.47;;
78072;SDS011;67281;48.770;11.440;2023-05-29T16:05:04;3.40;;;2.63;;
78072;SDS011;67281;48.770;11.440;2023-05-29T16:07:33;3.38;;;2.05;;
78072;SDS011;67281;48.770;11.440;2023-05-29T16:10:02;3.65;;;2.60;;
78072;SDS011;67281;48.770;11.440;2023-05-29T16:12:30;3.75;;;2.53;;
78072;SDS011;67281;48.770;11.440;2023-05-29T16:14:57;4.65;;;2.38;;
78072;SDS011;67281;48.770;11.440;2023-05-29T16:17:28;3.00;;;2.28;;
78072;SDS011;67281;48.770;11.440;2023-05-29T16:20:40;3.17;;;2.58;;
78072;SDS011;67281;48.770;11.440;2023-05-29T16:23:41;2.60;;;2.40;;
78072;SDS011;67281;48.770;11.440;2023-05-29T16:26:31;4.40;;;2.60;;
78072;SDS011;67281;48.770;11.440;2023-05-29T16:30:00;4.20;;;2.50;;
78072;SDS011;67281;48.770;11.440;2023-05-29T16:33:03;4.70;;;2.58;;
78072;SDS011;67281;48.770;11.440;2023-05-29T16:38:48;3.22;;;2.47;;
78072;SDS011;67281;48.770;11.440;2023-05-29T16:41:35;3.03;;;2.50;;
78072;SDS011;67281;48.770;11.440;2023-05-29T16:44:35;4.38;;;2.50;;
78072;SDS011;67281;48.770;11.440;2023-05-29T16:47:02;4.13;;;2.15;;
78072;SDS011;67281;48.770;11.440;2023-05-29T16:49:29;4.28;;;2.47;;
78072;SDS011;67281;48.770;11.440;2023-05-29T16:52:11;3.83;;;2.28;;
78072;SDS011;67281;48.770;11.440;2023-05-29T16:57:43;2.60;;;2.28;;
78072;SDS011;67281;48.770;11.440;2023-05-29T17:00:10;4.45;;;2.80;;
78072;SDS011;67281;48.770;11.440;2023-05-29T17:02:41;4.85;;;2.33;;
78072;SDS011;67281;48.770;11.440;2023-05-29T17:05:08;4.00;;;2.55;;
78072;SDS011;67281;48.770;11.440;2023-05-29T17:08:11;5.55;;;2.55;;
78072;SDS011;67281;48.770;11.440;2023-05-29T17:10:38;3.00;;;2.50;;
78072;SDS011;67281;48.770;11.440;2023-05-29T17:13:06;3.65;;;2.80;;
78072;SDS011;67281;48.770;11.440;2023-05-29T17:15:33;4.85;;;3.05;;
78072;SDS011;67281;48.770;11.440;2023-05-29T17:18:00;4.88;;;2.80;;
78072;SDS011;67281;48.770;11.440;2023-05-29T17:20:36;3.63;;;2.70;;
78072;SDS011;67281;48.770;11.440;2023-05-29T17:23:14;3.13;;;2.63;;
78072;SDS011;67281;48.770;11.440;2023-05-29T17:29:21;3.08;;;2.65;;
78072;SDS011;67281;48.770;11.440;2023-05-29T17:32:24;3.00;;;2.40;;
78072;SDS011;67281;48.770;11.440;2023-05-29T17:35:09;5.07;;;2.80;;
78072;SDS011;67281;48.770;11.440;2023-05-29T17:38:26;3.17;;;2.70;;
78072;SDS011;67281;48.770;11.440;2023-05-29T17:40:53;2.55;;;2.28;;
78072;SDS011;67281;48.770;11.440;2023-05-29T17:43:20;3.83;;;3.17;;
78072;SDS011;67281;48.770;11.440;2023-05-29T17:45:52;3.45;;;2.80;;
78072;SDS011;67281;48.770;11.440;2023-05-29T17:49:04;3.85;;;2.60;;
78072;SDS011;67281;48.770;11.440;2023-05-29T17:51:44;5.45;;;2.80;;
78072;SDS011;67281;48.770;11.440;2023-05-29T17:54:11;3.88;;;3.00;;
78072;SDS011;67281;48.770;11.440;2023-05-29T17:56:38;2.85;;;2.60;;
78072;SDS011;67281;48.770;11.440;2023-05-29T18:02:02;4.93;;;2.90;;
78072;SDS011;67281;48.770;11.440;2023-05-29T18:05:15;5.82;;;2.60;;
78072;SDS011;67281;48.770;11.440;2023-05-29T18:11:03;3.63;;;2.50;;
78072;SDS011;67281;48.770;11.440;2023-05-29T18:13:30;2.90;;;2.58;;
78072;SDS011;67281;48.770;11.440;2023-05-29T18:15:57;2.83;;;2.17;;
78072;SDS011;67281;48.770;11.440;2023-05-29T18:18:34;2.95;;;2.28;;
78072;SDS011;67281;48.770;11.440;2023-05-29T18:21:11;4.20;;;2.85;;
78072;SDS011;67281;48.770;11.440;2023-05-29T18:23:38;6.78;;;2.92;;
78072;SDS011;67281;48.770;11.440;2023-05-29T18:26:07;3.00;;;2.67;;
78072;SDS011;67281;48.770;11.440;2023-05-29T18:28:34;4.35;;;2.75;;
78072;SDS011;67281;48.770;11.440;2023-05-29T18:31:50;5.68;;;3.10;;
78072;SDS011;67281;48.770;11.440;2023-05-29T18:35:10;3.25;;;2.65;;
78072;SDS011;67281;48.770;11.440;2023-05-29T18:37:37;3.95;;;2.80;;
78072;SDS011;67281;48.770;11.440;2023-05-29T18:40:05;7.28;;;3.22;;
78072;SDS011;67281;48.770;11.440;2023-05-29T18:42:33;5.03;;;2.88;;
78072;SDS011;67281;48.770;11.440;2023-05-29T18:45:01;7.15;;;2.70;;
78072;SDS011;67281;48.770;11.440;2023-05-29T18:47:54;4.53;;;2.78;;
78072;SDS011;67281;48.770;11.440;2023-05-29T18:53:22;4.32;;;2.60;;
78072;SDS011;67281;48.770;11.440;2023-05-29T18:59:13;5.65;;;2.75;;
78072;SDS011;67281;48.770;11.440;2023-05-29T19:01:46;3.88;;;2.55;;